Time;durP1;ratioP1;P1;durP2;ratioP2;P2;SDS_P1;SDS_P2;PMS_P1;PMS_P2;Temp;Humidity;BMP_temperature;BMP_pressure;BME280_temperature;BME280_humidity;BME280_pressure;Samples;Min_cycle;Max_cycle;Signal;HPM_P1;HPM_P2
2023/04/14 00:02:51;;;;;;;10.25;4.47;;;;;;;5.38;100.00;100316.66;6073522;28;20486;-70
2023/04/14 00:05:46;;;;;;;6.87;3.60;;;;;;;5.29;99.67;100335.81;6079474;28;20048;-70
2023/04/14 00:08:41;;;;;;;6.63;3.83;;;;;;;4.69;99.02;100338.81;6073212;28;20033;-70
2023/04/14 00:11:37;;;;;;;7.60;3.70;;;;;;;4.26;99.75;100340.41;6072861;28;20435;-70
2023/04/14 00:14:32;;;;;;;8.40;4.20;;;;;;;4.26;100.00;100344.81;6072512;28;20042;-71
2023/04/14 00:17:27;;;;;;;8.33;3.90;;;;;;;4.31;100.00;100346.13;6073214;28;20048;-71
2023/04/14 00:20:23;;;;;;;7.97;3.50;;;;;;;4.34;100.00;100356.41;6073293;28;20033;-73
2023/04/14 00:23:18;;;;;;;7.30;3.30;;;;;;;4.34;100.00;100361.66;6072679;28;20042;-71
2023/04/14 00:26:14;;;;;;;8.02;3.83;;;;;;;4.30;100.00;100354.94;6073148;28;20502;-73
2023/04/14 00:29:09;;;;;;;8.77;4.25;;;;;;;4.74;100.00;100352.41;6073089;28;20478;-71
2023/04/14 00:32:05;;;;;;;8.10;3.15;;;;;;;4.20;99.29;100348.72;6072827;28;20432;-71
2023/04/14 00:35:02;;;;;;;8.02;3.30;;;;;;;3.71;100.00;100350.66;6072278;28;20033;-70
2023/04/14 00:37:57;;;;;;;10.27;4.00;;;;;;;3.62;100.00;100365.25;6072751;28;20033;-72
2023/04/14 00:40:52;;;;;;;9.53;3.90;;;;;;;3.58;100.00;100363.81;6072725;28;20037;-70
2023/04/14 00:43:51;;;;;;;10.23;4.70;;;;;;;4.06;100.00;100368.13;6071998;28;20818;-71
2023/04/14 00:46:47;;;;;;;10.15;4.38;;;;;;;3.88;100.00;100355.53;6072608;28;20037;-71
2023/04/14 00:49:42;;;;;;;9.70;4.00;;;;;;;3.53;100.00;100343.16;6075154;28;20045;-72
2023/04/14 00:52:38;;;;;;;9.45;3.92;;;;;;;3.95;100.00;100348.88;6072558;28;20028;-71
2023/04/14 00:55:34;;;;;;;8.77;3.72;;;;;;;4.46;100.00;100344.97;6087004;28;20425;-72
2023/04/14 00:58:30;;;;;;;10.10;4.07;;;;;;;4.70;100.00;100350.97;6071817;28;20037;-71
2023/04/14 01:01:27;;;;;;;8.20;4.13;;;;;;;4.63;100.00;100362.91;6073980;28;20099;-72
2023/04/14 01:04:23;;;;;;;12.07;4.53;;;;;;;4.87;100.00;100349.66;6071841;28;20041;-71
2023/04/14 01:07:19;;;;;;;11.75;4.20;;;;;;;4.78;100.00;100353.84;6076655;28;20045;-72
2023/04/14 01:10:15;;;;;;;8.13;4.05;;;;;;;5.12;100.00;100369.63;6096476;28;20033;-71
2023/04/14 01:13:32;;;;;;;8.98;3.88;;;;;;;5.31;99.71;100364.59;6096167;28;20028;-71
2023/04/14 01:16:31;;;;;;;9.23;3.88;;;;;;;5.35;100.00;100366.03;6078909;28;20077;-71
2023/04/14 01:20:03;;;;;;;9.48;4.05;;;;;;;4.78;98.68;100366.97;6090111;28;20065;-71
2023/04/14 01:23:05;;;;;;;8.68;3.38;;;;;;;4.21;99.11;100366.16;6072673;28;20033;-71
2023/04/14 01:26:17;;;;;;;7.53;3.55;;;;;;;3.74;100.00;100351.28;6091475;28;20476;-72
2023/04/14 01:29:28;;;;;;;7.30;3.60;;;;;;;4.02;100.00;100363.22;6091774;28;20068;-72
2023/04/14 01:32:25;;;;;;;10.23;3.65;;;;;;;4.47;100.00;100362.41;6076721;28;20075;-71
2023/04/14 01:35:27;;;;;;;11.52;4.32;;;;;;;4.60;100.00;100350.00;6090826;28;20037;-71
2023/04/14 01:38:27;;;;;;;8.73;3.95;;;;;;;4.68;100.00;100354.66;6090167;28;20227;-72
2023/04/14 01:41:26;;;;;;;5.80;3.65;;;;;;;4.07;100.00;100354.06;6098651;28;20063;-71
2023/04/14 01:44:22;;;;;;;8.43;3.40;;;;;;;3.78;100.00;100363.22;6096264;28;20461;-72
2023/04/14 01:47:19;;;;;;;6.53;3.40;;;;;;;3.85;100.00;100369.69;6117723;28;20029;-71
2023/04/14 01:50:15;;;;;;;9.63;3.95;;;;;;;4.58;100.00;100386.06;6096861;28;20029;-70
2023/04/14 01:53:12;;;;;;;9.18;3.40;;;;;;;4.59;100.00;100366.69;6058444;28;20026;-70
2023/04/14 01:56:08;;;;;;;9.98;4.70;;;;;;;4.52;100.00;100381.25;6091075;28;20112;-70
2023/04/14 01:59:04;;;;;;;9.32;4.03;;;;;;;4.68;100.00;100381.75;6082029;28;20036;-71
2023/04/14 02:02:06;;;;;;;9.88;4.43;;;;;;;4.51;100.00;100370.88;6078195;28;20057;-70
2023/04/14 02:05:03;;;;;;;10.57;4.10;;;;;;;4.69;100.00;100383.44;6057324;28;20041;-70
2023/04/14 02:07:58;;;;;;;8.43;4.40;;;;;;;4.68;100.00;100380.94;6075943;28;20028;-70
2023/04/14 02:10:54;;;;;;;9.82;3.72;;;;;;;4.06;100.00;100401.38;6090697;28;20033;-71
2023/04/14 02:13:50;;;;;;;8.73;4.22;;;;;;;3.41;100.00;100401.72;6074784;28;20104;-69
2023/04/14 02:16:47;;;;;;;8.05;3.83;;;;;;;3.51;100.00;100402.72;6075676;28;20064;-72
2023/04/14 02:19:43;;;;;;;11.00;4.68;;;;;;;3.87;100.00;100403.66;6075291;28;20482;-71
2023/04/14 02:22:38;;;;;;;7.93;4.13;;;;;;;4.32;100.00;100413.41;6057734;28;20091;-72
2023/04/14 02:25:34;;;;;;;10.17;4.33;;;;;;;4.34;100.00;100408.06;6074511;28;20521;-71
2023/04/14 02:28:32;;;;;;;9.93;4.38;;;;;;;4.19;100.00;100402.13;6075196;28;20033;-71
2023/04/14 02:31:29;;;;;;;9.07;4.05;;;;;;;3.46;100.00;100404.00;6090677;28;20036;-73
2023/04/14 02:34:28;;;;;;;10.88;4.32;;;;;;;3.05;100.00;100399.03;6056787;28;20037;-74
2023/04/14 02:37:28;;;;;;;9.00;3.92;;;;;;;2.69;100.00;100396.34;6075084;28;20103;-70
2023/04/14 02:40:26;;;;;;;8.43;4.07;;;;;;;2.55;100.00;100399.91;6090177;28;20048;-71
2023/04/14 02:43:30;;;;;;;7.45;3.25;;;;;;;2.95;100.00;100398.00;6074741;28;20033;-72
2023/04/14 02:46:26;;;;;;;9.38;3.78;;;;;;;3.41;100.00;100393.84;6090443;28;20057;-70
2023/04/14 02:49:22;;;;;;;9.40;4.20;;;;;;;3.12;100.00;100408.16;6057453;28;20037;-71
2023/04/14 02:52:19;;;;;;;8.48;3.85;;;;;;;2.70;100.00;100390.16;6088707;28;20029;-71
2023/04/14 02:55:14;;;;;;;8.60;3.92;;;;;;;2.65;100.00;100406.16;6056047;28;20041;-71
2023/04/14 02:58:10;;;;;;;8.02;3.75;;;;;;;3.05;100.00;100401.66;6075311;28;20037;-70
2023/04/14 03:01:05;;;;;;;11.00;4.93;;;;;;;3.19;100.00;100400.69;6075045;28;20514;-71
2023/04/14 03:04:01;;;;;;;8.90;4.20;;;;;;;3.87;100.00;100416.78;6056760;28;20437;-70
2023/04/14 03:06:57;;;;;;;11.07;4.30;;;;;;;3.36;100.00;100409.06;6074320;28;20036;-71
2023/04/14 03:09:53;;;;;;;8.57;4.18;;;;;;;2.62;100.00;100395.06;6089555;28;20048;-73
2023/04/14 03:12:49;;;;;;;7.22;3.90;;;;;;;2.35;100.00;100410.84;6090056;28;20587;-72
2023/04/14 03:15:45;;;;;;;8.20;3.88;;;;;;;2.32;100.00;100418.88;6056163;28;20108;-70
2023/04/14 03:18:41;;;;;;;13.10;4.93;;;;;;;3.26;100.00;100417.69;6056982;28;20029;-71
2023/04/14 03:21:36;;;;;;;8.25;3.58;;;;;;;3.35;100.00;100396.06;6089772;28;20033;-71
2023/04/14 03:24:33;;;;;;;11.43;5.00;;;;;;;3.15;100.00;100410.59;6073402;28;20041;-73
2023/04/14 03:27:30;;;;;;;9.52;4.30;;;;;;;3.16;100.00;100411.38;6074457;28;20517;-73
2023/04/14 03:30:29;;;;;;;9.35;4.28;;;;;;;2.82;100.00;100407.66;6074009;28;20118;-72
2023/04/14 03:33:27;;;;;;;9.48;4.35;;;;;;;2.53;100.00;100400.94;6088404;28;20036;-73
2023/04/14 03:36:24;;;;;;;9.43;3.95;;;;;;;2.84;100.00;100397.91;6073214;28;20040;-71
2023/04/14 03:39:21;;;;;;;12.45;4.45;;;;;;;3.53;100.00;100406.06;6073830;28;20029;-72
2023/04/14 03:42:18;;;;;;;11.70;5.32;;;;;;;3.19;100.00;100396.31;6073616;28;20437;-72
2023/04/14 03:45:14;;;;;;;10.75;4.45;;;;;;;2.74;100.00;100389.00;6072927;28;20041;-72
2023/04/14 03:48:11;;;;;;;10.85;4.10;;;;;;;2.56;100.00;100403.31;6072806;28;20045;-72
2023/04/14 03:51:08;;;;;;;11.20;3.90;;;;;;;2.37;100.00;100399.31;6080432;28;20114;-71
2023/04/14 03:54:04;;;;;;;12.07;4.88;;;;;;;2.29;100.00;100404.22;6072506;28;20029;-71
2023/04/14 03:57:03;;;;;;;10.60;4.97;;;;;;;2.24;100.00;100406.31;6055879;28;20033;-71
2023/04/14 04:00:04;;;;;;;14.27;6.13;;;;;;;2.68;100.00;100392.88;6088257;28;20033;-71
2023/04/14 04:02:59;;;;;;;11.57;5.15;;;;;;;2.84;100.00;100387.44;6066762;28;20124;-71
2023/04/14 04:05:54;;;;;;;10.73;4.13;;;;;;;3.47;100.00;100388.19;6088714;28;20033;-72
2023/04/14 04:08:51;;;;;;;13.10;5.70;;;;;;;3.46;100.00;100394.38;6114432;28;20037;-70
2023/04/14 04:11:47;;;;;;;10.93;5.00;;;;;;;3.60;100.00;100396.84;6065425;28;20034;-72
2023/04/14 04:14:43;;;;;;;13.15;5.30;;;;;;;3.02;100.00;100388.78;6066547;28;20033;-70
2023/04/14 04:17:40;;;;;;;9.07;4.67;;;;;;;2.65;100.00;100389.63;6094616;28;20047;-71
2023/04/14 04:20:38;;;;;;;11.00;5.07;;;;;;;2.42;100.00;100377.28;6055378;28;20060;-71
2023/04/14 04:23:33;;;;;;;11.93;5.28;;;;;;;2.64;100.00;100387.94;6087382;28;20036;-70
2023/04/14 04:26:29;;;;;;;12.25;5.15;;;;;;;2.42;100.00;100384.16;6072602;28;20033;-71
2023/04/14 04:29:25;;;;;;;12.23;5.17;;;;;;;2.42;100.00;100404.25;6073641;28;20041;-71
2023/04/14 04:32:21;;;;;;;12.70;5.25;;;;;;;2.07;100.00;100393.50;6078090;28;20470;-71
2023/04/14 04:35:17;;;;;;;13.67;4.60;;;;;;;2.03;100.00;100412.94;6095930;28;20033;-71
2023/04/14 04:38:12;;;;;;;11.38;5.28;;;;;;;1.89;100.00;100404.31;6112328;28;20116;-71
2023/04/14 04:41:19;;;;;;;14.03;4.63;;;;;;;1.71;100.00;100401.13;6096588;28;20397;-70
2023/04/14 04:44:14;;;;;;;11.82;4.78;;;;;;;1.59;100.00;100407.09;6096382;28;20475;-71
2023/04/14 04:47:10;;;;;;;11.23;4.37;;;;;;;1.52;100.00;100411.06;6096748;28;20040;-71
2023/04/14 04:50:06;;;;;;;11.95;4.53;;;;;;;1.46;100.00;100421.88;6080487;28;20029;-71
2023/04/14 04:53:01;;;;;;;10.45;4.57;;;;;;;1.37;100.00;100430.28;6071953;28;20036;-72
2023/04/14 04:55:57;;;;;;;9.68;4.20;;;;;;;1.31;100.00;100433.25;6071786;28;20037;-71
2023/04/14 04:58:52;;;;;;;10.43;4.93;;;;;;;1.24;100.00;100424.13;6078790;28;20033;-71
2023/04/14 05:01:47;;;;;;;10.90;4.73;;;;;;;1.28;100.00;100425.63;6093329;28;20045;-71
2023/04/14 05:04:43;;;;;;;8.73;4.10;;;;;;;1.29;100.00;100419.47;6076592;28;20345;-72
2023/04/14 05:07:38;;;;;;;13.20;5.23;;;;;;;1.46;100.00;100432.34;6077224;28;20486;-72
2023/04/14 05:10:35;;;;;;;11.77;4.53;;;;;;;1.57;100.00;100433.34;6076290;28;20045;-72
2023/04/14 05:13:31;;;;;;;12.13;4.60;;;;;;;1.58;100.00;100421.94;6076402;28;20026;-71
2023/04/14 05:16:27;;;;;;;14.63;4.93;;;;;;;1.55;100.00;100418.69;6077030;28;20098;-70
2023/04/14 05:19:24;;;;;;;10.88;4.50;;;;;;;1.65;100.00;100438.09;6077267;28;20037;-71
2023/04/14 05:22:19;;;;;;;10.30;4.63;;;;;;;1.72;100.00;100441.97;6076660;28;20444;-71
2023/04/14 05:25:14;;;;;;;14.97;5.80;;;;;;;1.82;100.00;100439.63;6075947;28;20048;-70
2023/04/14 05:28:10;;;;;;;12.57;5.20;;;;;;;2.03;100.00;100444.34;6077063;28;20056;-70
2023/04/14 05:31:05;;;;;;;13.70;5.95;;;;;;;2.06;100.00;100425.84;6076582;28;20045;-71
2023/04/14 05:34:00;;;;;;;14.53;5.37;;;;;;;2.13;100.00;100423.63;6075855;28;20095;-72
2023/04/14 05:36:56;;;;;;;20.03;6.40;;;;;;;2.33;100.00;100441.50;6076507;28;20368;-72
2023/04/14 05:39:51;;;;;;;14.63;6.10;;;;;;;2.36;100.00;100421.19;6076195;28;20048;-71
2023/04/14 05:42:46;;;;;;;23.73;6.77;;;;;;;2.45;100.00;100421.53;6076265;28;20108;-72
2023/04/14 05:45:41;;;;;;;15.47;6.50;;;;;;;2.59;100.00;100434.53;6075098;28;20429;-71
2023/04/14 05:48:37;;;;;;;13.60;5.40;;;;;;;2.33;100.00;100395.25;6076421;28;20041;-71
2023/04/14 05:51:33;;;;;;;15.40;5.88;;;;;;;2.67;100.00;100437.47;6091538;28;20295;-72
2023/04/14 05:54:28;;;;;;;15.35;6.15;;;;;;;2.77;100.00;100438.53;6074606;28;20075;-71
2023/04/14 05:57:23;;;;;;;16.60;6.73;;;;;;;2.85;100.00;100423.16;6075839;28;20025;-71
2023/04/14 06:00:19;;;;;;;12.70;5.90;;;;;;;2.99;100.00;100436.13;6075830;28;20044;-70
2023/04/14 06:03:15;;;;;;;15.77;7.03;;;;;;;3.05;100.00;100443.56;6075804;28;20041;-71
2023/04/14 06:06:10;;;;;;;15.18;6.25;;;;;;;3.21;100.00;100440.72;6075943;28;20033;-71
2023/04/14 06:09:05;;;;;;;16.00;6.60;;;;;;;3.36;100.00;100445.75;6074910;28;20692;-71
2023/04/14 06:12:01;;;;;;;14.07;6.17;;;;;;;3.57;100.00;100449.50;6074692;28;20033;-71
2023/04/14 06:14:56;;;;;;;15.57;6.78;;;;;;;3.73;100.00;100441.38;6075043;28;20029;-71
2023/04/14 06:17:51;;;;;;;14.03;6.27;;;;;;;3.81;100.00;100430.31;6075609;28;20034;-71
2023/04/14 06:20:47;;;;;;;14.40;5.77;;;;;;;4.08;100.00;100428.31;6085687;28;20632;-70
2023/04/14 06:23:42;;;;;;;13.80;5.63;;;;;;;4.23;100.00;100427.22;6085614;28;20033;-70
2023/04/14 06:26:37;;;;;;;14.23;6.27;;;;;;;4.33;100.00;100427.38;6105397;28;20040;-70
2023/04/14 06:29:33;;;;;;;11.87;5.33;;;;;;;4.73;100.00;100434.78;6102510;28;20044;-70
2023/04/14 06:32:28;;;;;;;11.33;5.37;;;;;;;4.79;100.00;100415.94;6075340;28;20288;-70
2023/04/14 06:35:23;;;;;;;11.60;5.10;;;;;;;5.13;100.00;100413.34;6084184;28;20064;-69
2023/04/14 06:38:19;;;;;;;10.40;4.70;;;;;;;5.32;100.00;100424.09;6074902;28;20061;-72
2023/04/14 06:41:14;;;;;;;10.05;4.82;;;;;;;5.24;100.00;100380.03;6075150;28;20113;-72
2023/04/14 06:44:09;;;;;;;12.55;5.18;;;;;;;5.47;100.00;100422.06;6074270;28;20045;-70
2023/04/14 06:47:05;;;;;;;9.00;3.87;;;;;;;5.61;100.00;100413.91;6075073;28;20044;-73
2023/04/14 06:50:01;;;;;;;7.63;4.13;;;;;;;5.66;100.00;100402.06;6074528;28;20036;-71
2023/04/14 06:52:57;;;;;;;11.80;3.97;;;;;;;5.67;100.00;100403.75;6074394;28;20045;-70
2023/04/14 06:55:58;;;;;;;8.93;4.07;;;;;;;5.92;100.00;100419.25;6073818;28;20041;-69
2023/04/14 06:58:53;;;;;;;;;;;;;;;6.08;100.00;100418.03;6074713;28;20068;-70
2023/04/14 07:01:48;;;;;;;7.40;3.70;;;;;;;6.34;100.00;100414.09;6074291;28;19924;-72
2023/04/14 07:04:43;;;;;;;7.50;3.93;;;;;;;6.33;100.00;100407.97;6073562;28;20094;-69
2023/04/14 07:07:39;;;;;;;8.53;3.77;;;;;;;6.67;100.00;100406.03;6074651;28;20045;-73
2023/04/14 07:10:34;;;;;;;8.93;3.63;;;;;;;7.20;100.00;100417.28;6074223;28;20068;-72
2023/04/14 07:13:29;;;;;;;9.63;3.80;;;;;;;6.97;97.58;100411.34;6073280;28;20041;-73
2023/04/14 07:16:25;;;;;;;7.97;2.97;;;;;;;7.17;97.67;100414.91;6074227;28;20363;-73
2023/04/14 07:19:20;;;;;;;11.80;3.93;;;;;;;7.29;95.91;100418.28;6073938;28;20033;-70
2023/04/14 07:22:15;;;;;;;9.60;2.70;;;;;;;7.37;94.77;100415.81;6073423;28;20033;-71
2023/04/14 07:25:11;;;;;;;6.35;2.80;;;;;;;7.45;94.92;100423.91;6073091;28;20087;-71
2023/04/14 07:28:06;;;;;;;7.00;3.13;;;;;;;7.83;95.54;100420.56;6073471;28;20128;-74
2023/04/14 07:31:08;;;;;;;10.02;3.30;;;;;;;7.83;93.25;100412.66;6073845;28;20030;-71
2023/04/14 07:34:04;;;;;;;7.50;3.08;;;;;;;8.17;92.81;100412.13;6072746;28;20047;-72
2023/04/14 07:36:59;;;;;;;6.88;3.08;;;;;;;8.73;89.50;100408.78;6073059;28;20041;-70
2023/04/14 07:39:54;;;;;;;4.97;2.85;;;;;;;8.88;89.10;100412.66;6073614;28;20394;-71
2023/04/14 07:42:50;;;;;;;6.57;2.70;;;;;;;8.76;86.91;100425.19;6073327;28;20037;-70
2023/04/14 07:45:45;;;;;;;5.57;2.90;;;;;;;8.99;86.49;100404.56;6072812;28;20056;-70
2023/04/14 07:48:41;;;;;;;6.97;3.00;;;;;;;9.01;86.89;100418.47;6073296;28;20041;-70
2023/04/14 07:51:36;;;;;;;6.85;2.70;;;;;;;9.26;87.44;100425.78;6074934;28;20491;-71
2023/04/14 07:54:32;;;;;;;6.73;2.77;;;;;;;9.18;85.56;100415.09;6072611;28;20132;-70
2023/04/14 07:57:27;;;;;;;7.40;2.77;;;;;;;9.40;84.59;100414.69;6073169;28;20037;-70
2023/04/14 08:00:22;;;;;;;7.47;2.67;;;;;;;9.71;82.79;100409.97;6073427;28;20452;-69
2023/04/14 08:03:17;;;;;;;7.30;2.77;;;;;;;9.71;83.87;100430.31;6072532;28;20545;-71
2023/04/14 08:06:13;;;;;;;5.40;2.30;;;;;;;9.51;83.94;100427.75;6073377;28;20306;-70
2023/04/14 08:09:08;;;;;;;6.57;2.77;;;;;;;9.72;83.08;100429.34;6072816;28;20049;-71
2023/04/14 08:12:03;;;;;;;5.90;2.17;;;;;;;9.84;80.66;100410.44;6072789;28;20033;-70
2023/04/14 08:14:59;;;;;;;5.27;1.77;;;;;;;9.79;79.88;100414.50;6072462;28;20071;-71
2023/04/14 08:17:54;;;;;;;5.87;2.10;;;;;;;9.79;79.47;100414.50;6072808;28;20124;-72
2023/04/14 08:20:50;;;;;;;5.25;2.10;;;;;;;9.70;79.71;100405.66;6073295;28;20048;-70
2023/04/14 08:23:45;;;;;;;6.15;2.08;;;;;;;9.83;79.83;100415.91;6089227;28;20022;-71
2023/04/14 08:26:41;;;;;;;5.60;2.13;;;;;;;10.03;78.12;100415.63;6072842;28;20037;-73
2023/04/14 08:29:36;;;;;;;3.77;1.90;;;;;;;10.02;78.48;100402.53;6072992;28;20033;-71
2023/04/14 08:32:32;;;;;;;5.10;2.03;;;;;;;10.26;78.75;100405.44;6072774;28;20522;-70
2023/04/14 08:35:27;;;;;;;6.30;2.20;;;;;;;10.60;76.44;100421.47;6077265;28;20128;-70
2023/04/14 08:38:23;;;;;;;5.07;2.23;;;;;;;10.23;76.87;100424.28;6077899;28;20043;-71
2023/04/14 08:41:19;;;;;;;5.37;2.30;;;;;;;10.24;77.63;100423.31;6077529;28;20676;-69
2023/04/14 08:44:14;;;;;;;5.18;1.95;;;;;;;10.53;76.93;100429.22;6077645;28;20117;-73
2023/04/14 08:47:10;;;;;;;4.87;2.00;;;;;;;10.53;75.24;100408.00;6082789;28;20039;-72
2023/04/14 08:50:11;;;;;;;3.97;1.80;;;;;;;10.70;74.80;100428.38;6115917;28;20041;-73
2023/04/14 08:53:08;;;;;;;9.80;3.55;;;;;;;10.65;73.76;100425.31;6079830;28;20029;-72
2023/04/14 08:56:04;;;;;;;4.18;2.50;;;;;;;10.85;74.52;100427.78;6076987;28;20029;-70
2023/04/14 08:59:00;;;;;;;4.55;2.03;;;;;;;10.98;72.70;100420.28;6077739;28;20474;-70
2023/04/14 09:01:56;;;;;;;9.43;2.40;;;;;;;10.95;74.44;100439.16;6077396;28;20110;-71
2023/04/14 09:04:52;;;;;;;3.97;1.90;;;;;;;11.39;73.51;100424.00;6076860;28;20437;-72
2023/04/14 09:07:47;;;;;;;4.18;2.08;;;;;;;11.73;72.91;100428.34;6077468;28;20030;-72
2023/04/14 09:10:43;;;;;;;4.83;2.23;;;;;;;11.55;72.39;100430.22;6077362;28;20064;-70
2023/04/14 09:13:39;;;;;;;6.10;2.58;;;;;;;11.53;71.45;100421.56;6058797;28;20280;-71
2023/04/14 09:16:35;;;;;;;6.78;2.58;;;;;;;11.24;73.23;100418.44;6076917;28;20025;-71
2023/04/14 09:19:30;;;;;;;6.57;2.08;;;;;;;11.78;72.10;100404.78;6077220;28;20048;-71
2023/04/14 09:22:26;;;;;;;5.03;2.30;;;;;;;11.87;71.39;100403.81;6077136;28;20044;-72
2023/04/14 09:25:22;;;;;;;8.32;2.78;;;;;;;12.20;68.79;100398.56;6091840;28;20044;-71
2023/04/14 09:28:17;;;;;;;7.15;2.67;;;;;;;12.29;69.07;100413.50;6076663;28;20029;-72
2023/04/14 09:31:12;;;;;;;5.37;2.30;;;;;;;12.49;68.24;100409.56;6076273;28;20041;-71
2023/04/14 09:34:16;;;;;;;7.13;2.90;;;;;;;12.69;67.70;100388.78;6076206;28;20112;-72
2023/04/14 09:37:12;;;;;;;6.00;2.33;;;;;;;12.21;66.04;100385.09;6076775;28;20470;-71
2023/04/14 09:40:07;;;;;;;5.23;3.10;;;;;;;12.33;67.61;100393.59;6077277;28;20108;-71
2023/04/14 09:43:03;;;;;;;4.70;2.17;;;;;;;12.65;68.03;100398.91;6076358;28;20030;-72
2023/04/14 09:46:06;;;;;;;6.53;2.50;;;;;;;13.01;65.80;100388.72;6075526;28;20540;-72
2023/04/14 09:49:04;;;;;;;5.38;2.65;;;;;;;12.48;66.30;100395.41;6076681;28;20025;-72
2023/04/14 09:52:02;;;;;;;4.82;2.55;;;;;;;12.61;66.79;100384.28;6080666;28;20112;-71
2023/04/14 09:54:58;;;;;;;6.80;2.50;;;;;;;12.96;65.49;100394.53;6075850;28;20131;-70
2023/04/14 09:57:54;;;;;;;7.22;3.63;;;;;;;12.67;65.67;100380.94;6076224;28;20406;-70
2023/04/14 10:00:50;;;;;;;5.40;2.88;;;;;;;12.67;66.73;100385.44;6075861;28;20049;-72
2023/04/14 10:03:47;;;;;;;6.50;2.72;;;;;;;12.41;67.35;100391.78;6075376;28;20116;-72
2023/04/14 10:06:46;;;;;;;5.15;2.42;;;;;;;12.70;66.98;100379.78;6076073;28;20038;-71
2023/04/14 10:09:46;;;;;;;4.65;2.63;;;;;;;12.79;65.33;100371.63;6076209;28;20029;-71
2023/04/14 10:12:43;;;;;;;6.82;2.65;;;;;;;12.66;66.20;100373.97;6075972;28;20034;-71
2023/04/14 10:15:38;;;;;;;6.85;2.60;;;;;;;12.97;65.26;100382.91;6075149;28;20084;-71
2023/04/14 10:18:34;;;;;;;7.27;3.00;;;;;;;12.76;66.39;100392.41;6075701;28;20041;-71
2023/04/14 10:21:29;;;;;;;7.10;2.58;;;;;;;13.19;66.12;100380.56;6076031;28;20641;-71
2023/04/14 10:24:25;;;;;;;6.93;2.80;;;;;;;13.48;64.37;100381.59;6075096;28;20037;-71
2023/04/14 10:27:20;;;;;;;5.47;2.70;;;;;;;13.16;64.88;100391.53;6075370;28;20076;-72
2023/04/14 10:30:16;;;;;;;5.75;2.47;;;;;;;12.85;64.76;100368.31;6090643;28;20108;-73
2023/04/14 10:33:13;;;;;;;6.97;3.50;;;;;;;12.90;64.97;100386.41;6074994;28;20096;-70
2023/04/14 10:36:08;;;;;;;5.13;2.92;;;;;;;12.70;66.25;100364.66;6074836;28;20036;-70
2023/04/14 10:39:05;;;;;;;6.50;2.63;;;;;;;13.05;66.00;100379.38;6075381;28;20033;-71
2023/04/14 10:42:00;;;;;;;6.65;3.20;;;;;;;13.08;64.89;100369.28;6075063;28;20088;-71
2023/04/14 10:45:06;;;;;;;5.30;2.80;;;;;;;13.02;65.39;100353.09;6074623;28;20037;-71
2023/04/14 10:48:02;;;;;;;5.28;2.95;;;;;;;13.05;65.93;100348.28;6074805;28;20040;-71
2023/04/14 10:50:58;;;;;;;5.43;2.67;;;;;;;12.90;65.59;100375.78;6075217;28;20021;-71
2023/04/14 10:53:54;;;;;;;5.57;3.45;;;;;;;12.61;67.16;100368.31;6074893;28;20029;-71
2023/04/14 10:57:13;;;;;;;5.80;2.45;;;;;;;13.34;66.16;100354.88;6074128;28;20120;-72
2023/04/14 11:00:23;;;;;;;8.23;3.45;;;;;;;12.99;66.19;100370.25;6076369;28;20594;-72
2023/04/14 11:03:19;;;;;;;6.63;3.03;;;;;;;12.77;68.23;100347.03;6090421;28;20033;-72
2023/04/14 11:06:47;;;;;;;6.15;2.97;;;;;;;13.40;66.69;100351.53;6087737;28;20513;-72
2023/04/14 11:09:42;;;;;;;7.18;2.90;;;;;;;13.48;65.52;100349.63;6083410;28;20060;-71
2023/04/14 11:12:42;;;;;;;6.23;3.37;;;;;;;13.64;65.10;100354.09;6095767;28;20065;-72
2023/04/14 11:15:44;;;;;;;4.35;2.58;;;;;;;14.13;62.81;100358.09;6074025;28;20051;-72
2023/04/14 11:18:44;;;;;;;6.43;3.20;;;;;;;13.22;64.31;100358.91;6073740;28;20033;-72
2023/04/14 11:21:49;;;;;;;6.15;2.58;;;;;;;13.80;64.61;100353.16;6073880;28;20029;-71
2023/04/14 11:24:44;;;;;;;5.90;2.83;;;;;;;13.59;62.84;100351.09;6072846;28;20049;-72
2023/04/14 11:27:40;;;;;;;5.22;2.83;;;;;;;13.77;63.41;100354.34;6089176;28;20041;-72
2023/04/14 11:30:36;;;;;;;6.28;2.78;;;;;;;13.63;62.56;100342.59;6074216;28;20033;-72
2023/04/14 11:33:34;;;;;;;4.93;2.75;;;;;;;13.23;64.06;100341.94;6088375;28;20087;-72
2023/04/14 11:36:31;;;;;;;6.00;3.05;;;;;;;13.04;63.25;100341.28;6073219;28;20040;-73
2023/04/14 11:39:28;;;;;;;7.03;3.05;;;;;;;12.88;65.92;100362.63;6073739;28;20390;-73
2023/04/14 11:42:23;;;;;;;5.50;3.88;;;;;;;12.63;65.13;100350.38;6073475;28;20091;-72
2023/04/14 11:45:19;;;;;;;5.18;3.03;;;;;;;12.63;65.54;100347.72;6073085;28;20042;-73
2023/04/14 11:48:16;;;;;;;4.88;2.85;;;;;;;12.66;65.98;100349.19;6073357;28;20606;-72
2023/04/14 11:51:11;;;;;;;6.10;2.53;;;;;;;12.48;67.88;100366.16;6073265;28;20042;-72
2023/04/14 11:54:06;;;;;;;5.88;2.50;;;;;;;12.63;66.86;100346.88;6073258;28;20048;-72
2023/04/14 11:57:08;;;;;;;6.83;2.67;;;;;;;12.76;65.21;100353.34;6072887;28;20116;-72
2023/04/14 12:00:04;;;;;;;7.65;2.60;;;;;;;12.66;65.97;100352.69;6073456;28;20052;-72
2023/04/14 12:03:03;;;;;;;5.43;2.22;;;;;;;12.66;65.26;100343.88;6073106;28;20147;-72
2023/04/14 12:06:00;;;;;;;7.20;2.30;;;;;;;13.06;63.82;100349.94;6072561;28;20032;-72
2023/04/14 12:09:02;;;;;;;5.47;2.90;;;;;;;12.93;64.64;100328.38;6072429;28;20394;-71
2023/04/14 12:11:57;;;;;;;6.97;2.85;;;;;;;12.83;65.41;100330.38;6073428;28;20034;-73
2023/04/14 12:14:53;;;;;;;6.53;2.50;;;;;;;12.99;66.15;100321.53;6072757;28;20044;-72
2023/04/14 12:17:48;;;;;;;5.70;2.17;;;;;;;12.76;65.53;100332.06;6088133;28;20625;-72
2023/04/14 12:20:51;;;;;;;4.57;2.15;;;;;;;12.62;65.64;100331.91;6088748;28;20060;-71
2023/04/14 12:23:47;;;;;;;4.95;2.30;;;;;;;12.48;67.00;100318.28;6071713;28;20178;-72
2023/04/14 12:26:43;;;;;;;6.03;2.60;;;;;;;12.67;68.53;100341.03;6073027;28;20034;-73
2023/04/14 12:29:42;;;;;;;5.30;2.70;;;;;;;12.58;68.76;100327.94;6072963;28;20124;-74
2023/04/14 12:32:42;;;;;;;6.88;2.88;;;;;;;12.52;68.23;100332.09;6073021;28;20033;-73
2023/04/14 12:35:39;;;;;;;4.90;2.45;;;;;;;12.69;70.20;100320.41;6072759;28;20386;-70
2023/04/14 12:38:34;;;;;;;6.55;2.72;;;;;;;12.83;66.19;100306.41;6072333;28;20367;-71
2023/04/14 12:41:29;;;;;;;5.20;1.98;;;;;;;13.03;65.33;100296.22;6073037;28;20041;-70
2023/04/14 12:44:25;;;;;;;4.33;2.30;;;;;;;13.33;64.00;100291.97;6072207;28;20040;-71
2023/04/14 12:47:44;;;;;;;4.30;1.90;;;;;;;13.56;64.50;100300.84;6072918;28;20428;-72
2023/04/14 12:50:41;;;;;;;7.07;2.30;;;;;;;14.06;63.57;100286.97;6070405;28;20052;-72
2023/04/14 12:53:37;;;;;;;3.60;1.90;;;;;;;14.51;61.34;100286.13;6073049;28;20033;-71
2023/04/14 12:56:33;;;;;;;3.97;2.13;;;;;;;14.07;61.46;100286.81;6082949;28;20036;-71
2023/04/14 12:59:28;;;;;;;5.53;2.57;;;;;;;13.87;62.21;100296.28;6072725;28;20096;-71
2023/04/14 13:02:24;;;;;;;5.63;2.35;;;;;;;14.24;60.27;100279.53;6072958;28;20264;-74
2023/04/14 13:05:19;;;;;;;7.13;2.60;;;;;;;14.11;60.90;100280.09;6072025;28;20051;-72
2023/04/14 13:08:15;;;;;;;5.18;1.90;;;;;;;13.76;61.50;100278.03;6072935;28;20036;-71
2023/04/14 13:11:13;;;;;;;2.33;1.60;;;;;;;14.07;59.68;100265.50;6072539;28;20037;-73
2023/04/14 13:14:09;;;;;;;4.30;1.48;;;;;;;14.63;56.78;100261.47;6071847;28;20022;-72
2023/04/14 13:17:04;;;;;;;4.00;1.80;;;;;;;14.54;58.79;100273.22;6072832;28;20039;-73
2023/04/14 13:20:01;;;;;;;4.07;1.88;;;;;;;14.73;58.21;100266.56;6074590;28;20057;-73
2023/04/14 13:22:56;;;;;;;3.97;1.70;;;;;;;14.04;57.84;100273.00;6077098;28;20045;-73
2023/04/14 13:25:51;;;;;;;4.93;2.07;;;;;;;13.48;60.30;100268.91;6076243;28;20367;-72
2023/04/14 13:28:49;;;;;;;5.53;2.30;;;;;;;13.70;58.88;100263.59;6091179;28;20041;-73
2023/04/14 13:31:44;;;;;;;4.28;2.10;;;;;;;13.54;59.79;100262.88;6103935;28;20012;-73
2023/04/14 13:34:40;;;;;;;5.80;2.17;;;;;;;13.66;61.29;100264.13;6096765;28;20045;-73
2023/04/14 13:37:36;;;;;;;3.92;1.88;;;;;;;14.08;60.37;100264.47;6077449;28;20045;-73
2023/04/14 13:40:31;;;;;;;5.65;2.55;;;;;;;13.68;61.10;100275.44;6076638;28;20045;-73
2023/04/14 13:43:26;;;;;;;6.30;2.13;;;;;;;13.89;60.04;100256.94;6075246;28;20037;-72